createdAt,value
2018-08-23T00:00:39.345Z,6.10
2018-08-23T00:03:16.784Z,6.50
2018-08-23T00:05:52.979Z,6.20
2018-08-23T00:08:22.397Z,6.83
2018-08-23T00:10:52.019Z,6.47
2018-08-23T00:13:21.247Z,5.87
2018-08-23T00:15:50.260Z,6.33
2018-08-23T00:18:19.008Z,5.93
2018-08-23T00:20:47.704Z,6.27
2018-08-23T00:23:16.482Z,6.53
2018-08-23T00:25:45.177Z,5.90
2018-08-23T00:28:13.891Z,6.13
2018-08-23T00:30:46.280Z,6.97
2018-08-23T00:33:15.165Z,6.53
2018-08-23T00:35:43.878Z,6.07
2018-08-23T00:38:12.624Z,6.20
2018-08-23T00:40:42.658Z,6.10
2018-08-23T00:43:12.892Z,5.80
2018-08-23T00:45:41.587Z,5.80
2018-08-23T00:48:10.373Z,6.10
2018-08-23T00:50:55.729Z,6.00
2018-08-23T00:53:24.844Z,6.47
2018-08-23T00:56:26.377Z,8.07
2018-08-23T00:58:59.198Z,7.87
2018-08-23T01:01:27.865Z,6.97
2018-08-23T01:03:56.569Z,6.80
2018-08-23T01:06:35.138Z,7.00
2018-08-23T01:09:04.817Z,6.53
2018-08-23T01:11:33.461Z,6.47
2018-08-23T01:14:02.127Z,6.77
2018-08-23T01:16:32.360Z,8.23
2018-08-23T01:19:06.285Z,6.90
2018-08-23T01:21:55.535Z,6.70
2018-08-23T01:24:27.814Z,6.50
2018-08-23T01:26:56.753Z,7.20
2018-08-23T01:29:30.120Z,6.63
2018-08-23T01:32:07.452Z,6.27
2018-08-23T01:34:36.469Z,9.57
2018-08-23T01:37:05.287Z,6.37
2018-08-23T01:39:34.360Z,7.10
2018-08-23T01:42:03.548Z,6.63
2018-08-23T01:44:36.576Z,6.60
2018-08-23T01:47:05.351Z,8.63
2018-08-23T01:49:34.139Z,6.50
2018-08-23T01:52:02.739Z,6.07
2018-08-23T01:54:31.585Z,6.77
2018-08-23T01:57:00.256Z,6.03
2018-08-23T01:59:28.965Z,8.57
2018-08-23T02:01:59.688Z,6.77
2018-08-23T02:04:28.553Z,7.40
2018-08-23T02:06:57.464Z,6.57
2018-08-23T02:09:26.368Z,6.43
2018-08-23T02:11:55.052Z,6.33
2018-08-23T02:14:24.164Z,6.30
2018-08-23T02:16:53.632Z,6.57
2018-08-23T02:19:22.893Z,6.23
2018-08-23T02:21:51.531Z,6.20
2018-08-23T02:24:24.455Z,6.80
2018-08-23T02:26:53.322Z,6.60
2018-08-23T02:29:33.066Z,9.10
2018-08-23T02:32:01.736Z,7.00
2018-08-23T02:34:34.578Z,6.50
2018-08-23T02:37:03.270Z,7.53
2018-08-23T02:39:32.035Z,6.80
2018-08-23T02:42:00.882Z,8.30
2018-08-23T02:44:29.556Z,6.83
2018-08-23T02:46:58.362Z,6.13
2018-08-23T02:49:27.096Z,6.67
2018-08-23T02:51:55.750Z,6.70
2018-08-23T02:54:24.435Z,7.10
2018-08-23T02:56:59.038Z,8.70
2018-08-23T02:59:28.381Z,6.40
2018-08-23T03:02:01.465Z,6.73
2018-08-23T03:04:30.243Z,6.43
2018-08-23T03:07:00.124Z,7.00
2018-08-23T03:09:35.593Z,6.53
2018-08-23T03:12:10.510Z,6.63
2018-08-23T03:14:40.122Z,9.40
2018-08-23T03:17:23.545Z,6.73
2018-08-23T03:20:11.355Z,6.73
2018-08-23T03:22:41.060Z,7.90
2018-08-23T03:25:12.063Z,6.63
2018-08-23T03:27:40.795Z,9.00
2018-08-23T03:30:11.706Z,6.63
2018-08-23T03:32:41.064Z,7.40
2018-08-23T03:35:09.878Z,7.43
2018-08-23T03:37:38.525Z,6.73
2018-08-23T03:40:08.259Z,6.60
2018-08-23T03:42:37.542Z,7.27
2018-08-23T03:45:07.414Z,6.97
2018-08-23T03:47:41.514Z,8.07
2018-08-23T03:50:10.228Z,6.73
2018-08-23T03:52:40.279Z,6.33
2018-08-23T03:55:10.691Z,6.63
2018-08-23T03:57:44.607Z,7.07
2018-08-23T04:00:13.339Z,7.20
2018-08-23T04:02:42.529Z,7.97
2018-08-23T04:05:16.608Z,7.50
2018-08-23T04:07:45.282Z,7.50
2018-08-23T04:10:14.227Z,7.63
2018-08-23T04:12:43.853Z,7.17
2018-08-23T04:15:21.954Z,8.53
2018-08-23T04:17:51.314Z,7.27
2018-08-23T04:20:20.033Z,7.53
2018-08-23T04:22:48.937Z,6.53
2018-08-23T04:25:17.692Z,7.10
2018-08-23T04:27:46.332Z,6.60
2018-08-23T04:30:15.122Z,7.87
2018-08-23T04:32:46.164Z,7.23
2018-08-23T04:35:34.958Z,7.27
2018-08-23T04:38:03.952Z,8.90
2018-08-23T04:40:32.907Z,6.87
2018-08-23T04:43:01.723Z,8.33
2018-08-23T04:45:32.967Z,6.60
2018-08-23T04:48:07.433Z,9.93
2018-08-23T04:50:37.025Z,7.63
2018-08-23T04:53:05.973Z,7.53
2018-08-23T04:55:34.762Z,7.30
2018-08-23T04:58:04.209Z,7.53
2018-08-23T05:00:33.451Z,11.80
2018-08-23T05:03:02.058Z,7.67
2018-08-23T05:05:30.759Z,11.30
2018-08-23T05:07:59.418Z,8.00
2018-08-23T05:10:28.197Z,7.40
2018-08-23T05:12:57.102Z,7.07
2018-08-23T05:15:25.778Z,8.10
2018-08-23T05:17:54.835Z,7.93
2018-08-23T05:20:23.746Z,8.87
2018-08-23T05:22:57.601Z,7.40
2018-08-23T05:25:26.271Z,6.70
2018-08-23T05:28:08.881Z,9.30
2018-08-23T05:30:37.856Z,7.00
2018-08-23T05:33:11.835Z,7.07
2018-08-23T05:35:40.490Z,6.93
2018-08-23T05:38:10.045Z,7.20
2018-08-23T05:40:44.361Z,7.50
2018-08-23T05:43:14.109Z,8.20
2018-08-23T05:45:49.275Z,7.50
2018-08-23T05:48:36.466Z,7.47
2018-08-23T05:51:08.483Z,7.50
2018-08-23T05:53:42.851Z,7.33
2018-08-23T05:56:11.687Z,7.80
2018-08-23T05:58:40.399Z,7.57
2018-08-23T06:01:09.077Z,7.57
2018-08-23T06:03:38.561Z,7.27
2018-08-23T06:06:07.585Z,7.30
2018-08-23T06:08:36.256Z,7.67
2018-08-23T06:11:10.205Z,7.37
2018-08-23T06:13:39.754Z,10.20
2018-08-23T06:16:08.406Z,7.23
2018-08-23T06:18:37.204Z,6.90
2018-08-23T06:21:05.945Z,6.83
2018-08-23T06:23:58.347Z,8.40
2018-08-23T06:26:43.742Z,7.10
2018-08-23T06:29:15.925Z,7.07
2018-08-23T06:32:04.564Z,8.07
2018-08-23T06:34:34.864Z,12.27
2018-08-23T06:37:03.585Z,7.20
2018-08-23T06:39:32.360Z,9.67
2018-08-23T06:42:02.244Z,7.37
2018-08-23T06:44:37.850Z,7.60
2018-08-23T06:47:06.832Z,7.13
2018-08-23T06:49:35.516Z,8.10
2018-08-23T06:52:12.566Z,8.60
2018-08-23T06:54:41.902Z,8.93
2018-08-23T06:57:11.264Z,8.47
2018-08-23T06:59:40.295Z,8.63
2018-08-23T07:02:09.261Z,7.03
2018-08-23T07:04:38.005Z,6.87
2018-08-23T07:07:07.604Z,10.70
2018-08-23T07:09:42.478Z,6.70
2018-08-23T07:12:16.379Z,7.53
2018-08-23T07:14:46.823Z,6.87
2018-08-23T07:17:21.024Z,6.73
2018-08-23T07:19:50.151Z,6.53
2018-08-23T07:22:23.044Z,9.37
2018-08-23T07:24:52.890Z,6.23
2018-08-23T07:27:22.429Z,6.93
2018-08-23T07:29:53.814Z,6.40
2018-08-23T07:32:24.430Z,6.17
2018-08-23T07:35:01.975Z,6.43
2018-08-23T07:37:31.736Z,6.03
2018-08-23T07:40:05.695Z,6.20
2018-08-23T07:42:35.300Z,5.17
2018-08-23T07:45:04.398Z,5.60
2018-08-23T07:47:34.459Z,5.83
2018-08-23T07:50:03.459Z,4.57
2018-08-23T07:52:33.090Z,4.33
2018-08-23T07:55:05.011Z,4.87
2018-08-23T07:57:34.909Z,4.43
2018-08-23T08:00:13.467Z,4.13
2018-08-23T08:02:42.228Z,6.07
2018-08-23T08:05:10.990Z,5.10
2018-08-23T08:07:39.662Z,4.33
2018-08-23T08:10:12.736Z,4.20
2018-08-23T08:12:46.682Z,4.30
2018-08-23T08:15:15.519Z,5.27
2018-08-23T08:17:44.155Z,3.43
2018-08-23T08:20:12.806Z,3.60
2018-08-23T08:22:41.656Z,4.10
2018-08-23T08:25:18.351Z,4.90
2018-08-23T08:27:47.801Z,4.10
2018-08-23T08:30:18.711Z,4.57
2018-08-23T08:32:47.686Z,4.07
2018-08-23T08:35:19.465Z,5.63
2018-08-23T08:37:49.642Z,4.63
2018-08-23T08:40:24.495Z,3.93
2018-08-23T08:42:53.570Z,5.53
2018-08-23T08:45:23.406Z,4.27
2018-08-23T08:47:52.096Z,4.43
2018-08-23T08:50:21.059Z,4.33
2018-08-23T08:52:49.684Z,4.57
2018-08-23T08:55:18.374Z,5.47
2018-08-23T08:57:48.073Z,3.83
2018-08-23T09:00:16.777Z,4.90
2018-08-23T09:02:45.535Z,3.53
2018-08-23T09:05:14.523Z,4.80
2018-08-23T09:07:44.798Z,3.70
2018-08-23T09:10:13.408Z,4.77
2018-08-23T09:12:49.233Z,7.10
2018-08-23T09:15:17.983Z,3.23
2018-08-23T09:17:47.786Z,4.47
2018-08-23T09:20:18.434Z,3.77
2018-08-23T09:22:49.104Z,7.03
2018-08-23T09:25:27.859Z,4.03
2018-08-23T09:27:57.327Z,3.57
2018-08-23T09:30:27.680Z,3.20
2018-08-23T09:32:56.922Z,2.90
2018-08-23T09:35:31.822Z,2.77
2018-08-23T09:38:01.835Z,3.57
2018-08-23T09:40:30.658Z,3.37
2018-08-23T09:43:03.083Z,3.20
2018-08-23T09:45:33.116Z,5.07
2018-08-23T09:48:01.817Z,3.50
2018-08-23T09:50:30.989Z,3.20
2018-08-23T09:52:59.734Z,4.20
2018-08-23T09:55:29.090Z,3.67
2018-08-23T09:57:58.850Z,3.60
2018-08-23T10:02:34.241Z,5.47
2018-08-23T10:05:05.855Z,3.53
2018-08-23T10:07:39.775Z,3.53
2018-08-23T10:10:13.727Z,6.07
2018-08-23T10:12:47.978Z,3.37
2018-08-23T10:15:21.931Z,3.37
2018-08-23T10:18:01.137Z,4.43
2018-08-23T10:20:35.343Z,3.43
2018-08-23T10:23:09.298Z,6.17
2018-08-23T10:25:42.116Z,6.30
2018-08-23T10:28:12.075Z,6.17
2018-08-23T10:30:41.026Z,3.37
2018-08-23T10:33:10.086Z,3.50
2018-08-23T10:35:43.186Z,4.27
2018-08-23T10:38:14.308Z,4.70
2018-08-23T10:40:44.129Z,4.37
2018-08-23T10:43:13.196Z,4.47
2018-08-23T10:45:42.434Z,3.93
2018-08-23T10:48:18.742Z,3.57
2018-08-23T10:50:49.070Z,3.90
2018-08-23T10:53:19.210Z,3.57
2018-08-23T10:55:48.039Z,5.67
2018-08-23T10:58:16.908Z,5.27
2018-08-23T11:00:45.996Z,5.23
2018-08-23T11:03:14.802Z,3.37
2018-08-23T11:05:43.844Z,3.47
2018-08-23T11:08:17.669Z,3.47
2018-08-23T11:10:51.806Z,3.50
2018-08-23T11:13:25.779Z,3.63
2018-08-23T11:15:59.990Z,3.60
2018-08-23T11:18:33.899Z,3.30
2018-08-23T11:21:02.852Z,3.27
2018-08-23T11:23:31.534Z,2.80
2018-08-23T11:26:00.201Z,3.00
2018-08-23T11:28:28.949Z,2.70
2018-08-23T11:31:03.207Z,2.73
2018-08-23T11:33:31.988Z,2.90
2018-08-23T11:36:00.692Z,3.90
2018-08-23T11:38:29.408Z,2.93
2018-08-23T11:40:58.222Z,2.70
2018-08-23T11:43:26.928Z,2.47
2018-08-23T11:45:57.519Z,4.50
2018-08-23T11:48:26.395Z,2.77
2018-08-23T11:50:55.162Z,3.10
2018-08-23T11:53:24.093Z,3.30
2018-08-23T11:55:52.544Z,3.10
2018-08-23T11:58:21.220Z,2.97
2018-08-23T12:00:49.985Z,3.77
2018-08-23T12:03:18.659Z,3.93
2018-08-23T12:05:47.358Z,2.87
2018-08-23T12:08:16.441Z,3.37
2018-08-23T12:10:45.019Z,3.30
2018-08-23T12:13:13.682Z,4.30
2018-08-23T12:15:42.435Z,3.30
2018-08-23T12:18:11.862Z,3.20
2018-08-23T12:20:40.860Z,3.30
2018-08-23T12:23:09.465Z,3.77
2018-08-23T12:25:38.317Z,3.80
2018-08-23T12:28:12.338Z,3.10
2018-08-23T12:30:42.090Z,3.30
2018-08-23T12:33:10.742Z,3.30
2018-08-23T12:35:39.447Z,3.73
2018-08-23T12:39:20.845Z,3.03
2018-08-23T12:41:54.901Z,5.70
2018-08-23T12:44:23.534Z,3.07
2018-08-23T12:46:56.487Z,4.77
2018-08-23T12:49:25.131Z,2.83
2018-08-23T12:51:54.144Z,3.20
2018-08-23T12:54:22.847Z,3.43
2018-08-23T12:56:51.547Z,2.90
2018-08-23T12:59:20.302Z,2.93
2018-08-23T13:01:49.088Z,3.00
2018-08-23T13:04:17.769Z,3.83
2018-08-23T13:06:46.761Z,5.67
2018-08-23T13:09:15.544Z,3.27
2018-08-23T13:11:44.200Z,2.83
2018-08-23T13:14:12.939Z,4.70
2018-08-23T13:16:41.846Z,3.23
2018-08-23T13:19:10.514Z,3.40
2018-08-23T13:21:39.595Z,4.60
2018-08-23T13:24:08.251Z,3.37
2018-08-23T13:26:42.289Z,5.43
2018-08-23T13:29:10.988Z,3.27
2018-08-23T13:31:39.801Z,3.10
2018-08-23T13:34:08.618Z,3.20
2018-08-23T13:36:37.919Z,3.30
2018-08-23T13:39:10.113Z,3.10
2018-08-23T13:41:38.740Z,3.03
2018-08-23T13:44:07.819Z,4.30
2018-08-23T13:46:36.499Z,2.67
2018-08-23T13:49:05.362Z,4.43
2018-08-23T13:51:34.657Z,3.03
2018-08-23T13:54:03.318Z,4.37
2018-08-23T13:56:31.900Z,3.10
2018-08-23T13:59:00.567Z,3.60
2018-08-23T14:01:30.178Z,5.23
2018-08-23T14:03:59.020Z,2.90
2018-08-23T14:06:27.746Z,3.30
2018-08-23T14:08:56.311Z,8.70
2018-08-23T14:11:25.008Z,3.67
2018-08-23T14:13:53.666Z,3.00
2018-08-23T14:16:22.338Z,3.50
2018-08-23T14:18:51.093Z,3.13
2018-08-23T14:21:19.733Z,3.70
2018-08-23T14:23:48.350Z,5.03
2018-08-23T14:26:16.977Z,3.60
2018-08-23T14:28:45.656Z,3.70
2018-08-23T14:31:14.404Z,5.07
2018-08-23T14:33:43.062Z,4.90
2018-08-23T14:36:11.722Z,4.87
2018-08-23T14:38:40.412Z,3.60
2018-08-23T14:41:09.069Z,3.60
2018-08-23T14:43:37.786Z,3.60
2018-08-23T14:46:11.963Z,3.67
2018-08-23T14:48:40.772Z,3.50
2018-08-23T14:51:09.486Z,3.33
2018-08-23T14:53:38.194Z,3.73
2018-08-23T14:56:12.166Z,3.60
2018-08-23T14:58:40.886Z,3.47
2018-08-23T15:01:09.640Z,3.30
2018-08-23T15:03:38.249Z,3.00
2018-08-23T15:06:06.933Z,3.53
2018-08-23T15:08:35.678Z,3.63
2018-08-23T15:11:04.386Z,3.67
2018-08-23T15:13:33.071Z,3.57
2018-08-23T15:16:01.652Z,4.63
2018-08-23T15:18:30.302Z,4.40
2018-08-23T15:20:59.044Z,3.60
2018-08-23T15:23:27.733Z,3.90
2018-08-23T15:25:56.391Z,5.10
2018-08-23T15:28:25.051Z,3.30
2018-08-23T15:30:53.750Z,3.43
2018-08-23T15:33:22.494Z,3.57
2018-08-23T15:35:51.135Z,4.07
2018-08-23T15:38:19.805Z,3.60
2018-08-23T15:40:48.471Z,4.80
2018-08-23T15:43:19.247Z,3.20
2018-08-23T15:45:48.694Z,3.50
2018-08-23T15:48:17.372Z,3.50
2018-08-23T15:50:46.103Z,3.83
2018-08-23T15:53:14.831Z,3.50
2018-08-23T15:55:43.480Z,4.13
2018-08-23T15:58:12.162Z,7.57
2018-08-23T16:00:41.533Z,3.53
2018-08-23T16:03:10.528Z,3.63
2018-08-23T16:05:39.746Z,4.27
2018-08-23T16:08:08.512Z,4.27
2018-08-23T16:10:37.214Z,3.60
2018-08-23T16:13:05.899Z,3.70
2018-08-23T16:15:34.590Z,3.50
2018-08-23T16:18:08.670Z,3.43
2018-08-23T16:20:42.606Z,3.43
2018-08-23T16:23:11.249Z,3.47
2018-08-23T16:25:41.846Z,3.37
2018-08-23T16:28:10.970Z,3.67
2018-08-23T16:30:41.702Z,4.00
2018-08-23T16:33:11.075Z,4.03
2018-08-23T16:35:40.605Z,4.30
2018-08-23T16:38:09.458Z,4.13
2018-08-23T16:40:38.182Z,4.23
2018-08-23T16:43:06.811Z,4.07
2018-08-23T16:45:35.532Z,4.27
2018-08-23T16:48:04.210Z,4.57
2018-08-23T16:50:32.901Z,4.17
2018-08-23T16:53:01.764Z,4.10
2018-08-23T16:55:30.471Z,4.40
2018-08-23T16:57:59.691Z,4.20
2018-08-23T17:00:28.445Z,5.00
2018-08-23T17:02:57.409Z,4.37
2018-08-23T17:05:26.380Z,5.77
2018-08-23T17:07:55.015Z,4.57
2018-08-23T17:10:23.679Z,4.70
2018-08-23T17:12:52.434Z,4.53
2018-08-23T17:15:21.150Z,8.23
2018-08-23T17:17:56.042Z,5.00
2018-08-23T17:20:24.859Z,4.13
2018-08-23T17:22:53.523Z,4.30
2018-08-23T17:25:22.200Z,4.33
2018-08-23T17:27:50.898Z,4.57
2018-08-23T17:30:19.600Z,4.70
2018-08-23T17:32:48.403Z,4.20
2018-08-23T17:35:17.643Z,4.53
2018-08-23T17:37:46.302Z,4.27
2018-08-23T17:40:15.022Z,4.30
2018-08-23T17:42:44.830Z,4.63
2018-08-23T17:45:14.717Z,4.03
2018-08-23T17:47:43.373Z,4.83
2018-08-23T17:50:12.070Z,5.03
2018-08-23T17:52:40.808Z,4.87
2018-08-23T17:55:09.519Z,5.73
2018-08-23T17:57:38.279Z,4.80
2018-08-23T18:00:07.083Z,4.60
2018-08-23T18:02:35.688Z,4.37
2018-08-23T18:05:04.759Z,4.40
2018-08-23T18:07:34.343Z,5.07
2018-08-23T18:10:03.063Z,4.97
2018-08-23T18:12:31.786Z,6.17
2018-08-23T18:15:00.607Z,4.30
2018-08-23T18:17:29.350Z,5.43
2018-08-23T18:19:57.990Z,4.03
2018-08-23T18:22:26.785Z,4.13
2018-08-23T18:24:55.487Z,3.93
2018-08-23T18:27:24.162Z,3.33
2018-08-23T18:29:52.852Z,3.50
2018-08-23T18:32:21.720Z,3.20
2018-08-23T18:34:50.833Z,3.40
2018-08-23T18:37:19.992Z,2.97
2018-08-23T18:39:48.752Z,4.47
2018-08-23T18:42:17.716Z,3.53
2018-08-23T18:44:46.415Z,3.10
2018-08-23T18:47:15.592Z,3.83
2018-08-23T18:49:44.420Z,3.00
2018-08-23T18:52:13.128Z,3.13
2018-08-23T18:54:41.817Z,3.07
2018-08-23T18:57:10.518Z,3.53
2018-08-23T18:59:39.526Z,3.10
2018-08-23T19:02:08.321Z,4.77
2018-08-23T19:04:37.007Z,3.40
2018-08-23T19:07:10.147Z,3.30
2018-08-23T19:09:38.864Z,3.90
2018-08-23T19:12:07.629Z,3.17
2018-08-23T19:14:36.259Z,2.90
2018-08-23T19:17:10.266Z,3.17
2018-08-23T19:19:38.945Z,3.40
2018-08-23T19:22:07.935Z,2.97
2018-08-23T19:24:36.768Z,3.67
2018-08-23T19:27:05.506Z,2.97
2018-08-23T19:29:34.258Z,2.80
2018-08-23T19:32:03.107Z,2.80
2018-08-23T19:34:31.816Z,3.10
2018-08-23T19:37:00.515Z,5.90
2018-08-23T19:39:29.367Z,2.60
2018-08-23T19:41:58.406Z,2.93
2018-08-23T19:44:27.081Z,3.10
2018-08-23T19:47:01.006Z,3.10
2018-08-23T19:49:34.871Z,4.40
2018-08-23T19:52:03.601Z,5.13
2018-08-23T19:54:32.263Z,3.83
2018-08-23T19:57:01.242Z,2.97
2018-08-23T19:59:29.863Z,5.03
2018-08-23T20:01:58.784Z,4.33
2018-08-23T20:04:27.592Z,3.93
2018-08-23T20:06:56.294Z,3.27
2018-08-23T20:09:26.006Z,3.50
2018-08-23T20:11:54.606Z,3.60
2018-08-23T20:14:23.259Z,4.87
2018-08-23T20:16:52.733Z,3.50
2018-08-23T20:19:21.642Z,5.43
2018-08-23T20:21:50.271Z,4.83
2018-08-23T20:24:19.014Z,5.97
2018-08-23T20:26:47.963Z,3.80
2018-08-23T20:29:16.658Z,3.57
2018-08-23T20:31:46.167Z,3.27
2018-08-23T20:34:15.421Z,4.40
2018-08-23T20:36:44.630Z,6.17
2018-08-23T20:39:14.809Z,7.60
2018-08-23T20:41:45.663Z,5.50
2018-08-23T20:44:14.457Z,3.00
2018-08-23T20:46:43.571Z,3.30
2018-08-23T20:49:12.257Z,3.10
2018-08-23T20:51:41.042Z,5.00
2018-08-23T20:54:09.964Z,3.30
2018-08-23T20:56:38.621Z,2.77
2018-08-23T20:59:07.483Z,4.63
2018-08-23T21:01:36.482Z,2.90
2018-08-23T21:04:05.191Z,2.57
2018-08-23T21:06:34.087Z,7.90
2018-08-23T21:09:02.885Z,5.40
2018-08-23T21:11:31.666Z,3.03
2018-08-23T21:14:00.351Z,2.93
2018-08-23T21:16:29.026Z,4.07
2018-08-23T21:18:57.698Z,3.07
2018-08-23T21:21:26.400Z,3.20
2018-08-23T21:23:55.191Z,3.90
2018-08-23T21:26:24.710Z,3.40
2018-08-23T21:28:53.573Z,9.30
2018-08-23T21:31:22.350Z,3.33
2018-08-23T21:33:51.206Z,4.13
2018-08-23T21:36:19.957Z,2.83
2018-08-23T21:38:48.619Z,3.40
2018-08-23T21:41:18.293Z,3.03
2018-08-23T21:43:47.106Z,3.03
2018-08-23T21:46:15.979Z,2.93
2018-08-23T21:48:45.019Z,2.80
2018-08-23T21:51:13.733Z,3.20
2018-08-23T21:53:43.047Z,3.00
2018-08-23T21:56:11.938Z,4.77
2018-08-23T21:58:40.673Z,4.00
2018-08-23T22:01:10.310Z,3.17
2018-08-23T22:03:39.361Z,2.97
2018-08-23T22:06:08.299Z,3.30
2018-08-23T22:08:36.898Z,3.07
2018-08-23T22:11:05.682Z,2.93
2018-08-23T22:13:34.815Z,3.93
2018-08-23T22:16:03.653Z,3.10
2018-08-23T22:18:32.390Z,2.73
2018-08-23T22:21:01.242Z,3.20
2018-08-23T22:23:29.932Z,3.03
2018-08-23T22:25:58.581Z,3.57
2018-08-23T22:28:27.223Z,3.40
2018-08-23T22:30:56.168Z,3.23
2018-08-23T22:33:24.823Z,3.10
2018-08-23T22:35:53.536Z,3.40
2018-08-23T22:38:22.231Z,3.40
2018-08-23T22:40:50.915Z,3.03
2018-08-23T22:43:19.667Z,3.63
2018-08-23T22:45:48.393Z,3.43
2018-08-23T22:48:17.077Z,3.33
2018-08-23T22:50:45.914Z,3.37
2018-08-23T22:53:14.577Z,3.97
2018-08-23T22:55:43.465Z,4.30
2018-08-23T22:58:12.136Z,4.80
2018-08-23T23:00:42.517Z,3.50
2018-08-23T23:03:16.542Z,3.60
2018-08-23T23:05:45.606Z,3.63
2018-08-23T23:08:14.273Z,3.20
2018-08-23T23:10:43.269Z,3.70
2018-08-23T23:13:12.072Z,3.70
2018-08-23T23:15:40.802Z,3.57
2018-08-23T23:18:09.589Z,6.03
2018-08-23T23:20:38.423Z,4.10
2018-08-23T23:23:07.491Z,4.00
2018-08-23T23:25:36.373Z,3.47
2018-08-23T23:28:05.230Z,5.80
2018-08-23T23:30:34.483Z,3.67
2018-08-23T23:33:03.845Z,4.03
2018-08-23T23:35:32.653Z,7.13
2018-08-23T23:38:01.597Z,3.90
2018-08-23T23:40:30.560Z,3.77
2018-08-23T23:42:59.275Z,5.60
2018-08-23T23:45:27.991Z,3.83
2018-08-23T23:47:56.811Z,3.97
2018-08-23T23:50:25.620Z,3.77
2018-08-23T23:52:54.378Z,4.00
2018-08-23T23:55:23.356Z,3.53
2018-08-23T23:57:52.330Z,3.47
